sensor_id;sensor_type;location;lat;lon;timestamp;P1;durP1;ratioP1;P2;durP2;ratioP2
16403;SDS011;8311;50.158;8.642;2023-07-13T00:02:20;5.40;;;1.52;;
16403;SDS011;8311;50.158;8.642;2023-07-13T00:05:12;5.55;;;1.83;;
16403;SDS011;8311;50.158;8.642;2023-07-13T00:08:05;3.92;;;1.50;;
16403;SDS011;8311;50.158;8.642;2023-07-13T00:11:00;4.57;;;1.40;;
16403;SDS011;8311;50.158;8.642;2023-07-13T00:13:54;2.30;;;1.20;;
16403;SDS011;8311;50.158;8.642;2023-07-13T00:16:49;4.00;;;1.70;;
16403;SDS011;8311;50.158;8.642;2023-07-13T00:19:42;3.47;;;1.35;;
16403;SDS011;8311;50.158;8.642;2023-07-13T00:22:37;2.83;;;1.60;;
16403;SDS011;8311;50.158;8.642;2023-07-13T00:25:30;2.78;;;1.52;;
16403;SDS011;8311;50.158;8.642;2023-07-13T00:28:22;3.08;;;1.30;;
16403;SDS011;8311;50.158;8.642;2023-07-13T00:31:16;3.67;;;1.65;;
16403;SDS011;8311;50.158;8.642;2023-07-13T00:34:10;2.65;;;1.25;;
16403;SDS011;8311;50.158;8.642;2023-07-13T00:37:04;4.05;;;1.50;;
16403;SDS011;8311;50.158;8.642;2023-07-13T00:39:58;4.60;;;1.75;;
16403;SDS011;8311;50.158;8.642;2023-07-13T00:42:52;4.85;;;1.80;;
16403;SDS011;8311;50.158;8.642;2023-07-13T00:49:15;4.00;;;1.35;;
16403;SDS011;8311;50.158;8.642;2023-07-13T00:52:12;4.22;;;1.52;;
16403;SDS011;8311;50.158;8.642;2023-07-13T00:55:06;4.30;;;1.40;;
16403;SDS011;8311;50.158;8.642;2023-07-13T00:58:02;3.05;;;1.65;;
16403;SDS011;8311;50.158;8.642;2023-07-13T01:00:55;5.90;;;1.83;;
16403;SDS011;8311;50.158;8.642;2023-07-13T01:03:48;5.32;;;1.80;;
16403;SDS011;8311;50.158;8.642;2023-07-13T01:06:43;4.30;;;1.88;;
16403;SDS011;8311;50.158;8.642;2023-07-13T01:09:39;7.72;;;1.60;;
16403;SDS011;8311;50.158;8.642;2023-07-13T01:12:31;5.65;;;1.67;;
16403;SDS011;8311;50.158;8.642;2023-07-13T01:15:33;5.10;;;1.70;;
16403;SDS011;8311;50.158;8.642;2023-07-13T01:18:28;3.63;;;1.50;;
16403;SDS011;8311;50.158;8.642;2023-07-13T01:21:24;3.53;;;1.25;;
16403;SDS011;8311;50.158;8.642;2023-07-13T01:24:18;4.30;;;1.40;;
16403;SDS011;8311;50.158;8.642;2023-07-13T01:27:13;4.97;;;1.48;;
16403;SDS011;8311;50.158;8.642;2023-07-13T01:30:09;5.00;;;1.30;;
16403;SDS011;8311;50.158;8.642;2023-07-13T01:33:03;4.35;;;1.50;;
16403;SDS011;8311;50.158;8.642;2023-07-13T01:35:56;3.28;;;1.67;;
16403;SDS011;8311;50.158;8.642;2023-07-13T01:38:52;3.45;;;1.70;;
16403;SDS011;8311;50.158;8.642;2023-07-13T01:41:45;4.35;;;1.38;;
16403;SDS011;8311;50.158;8.642;2023-07-13T01:44:39;6.18;;;1.40;;
16403;SDS011;8311;50.158;8.642;2023-07-13T01:47:32;4.97;;;1.55;;
16403;SDS011;8311;50.158;8.642;2023-07-13T01:50:26;2.97;;;1.40;;
16403;SDS011;8311;50.158;8.642;2023-07-13T01:53:19;4.45;;;1.45;;
16403;SDS011;8311;50.158;8.642;2023-07-13T01:56:14;3.33;;;1.45;;
16403;SDS011;8311;50.158;8.642;2023-07-13T01:59:07;7.75;;;1.55;;
16403;SDS011;8311;50.158;8.642;2023-07-13T02:02:03;3.00;;;1.40;;
16403;SDS011;8311;50.158;8.642;2023-07-13T02:04:57;3.95;;;1.70;;
16403;SDS011;8311;50.158;8.642;2023-07-13T02:07:50;5.13;;;1.50;;
16403;SDS011;8311;50.158;8.642;2023-07-13T02:10:43;4.43;;;1.50;;
16403;SDS011;8311;50.158;8.642;2023-07-13T02:13:38;2.33;;;1.45;;
16403;SDS011;8311;50.158;8.642;2023-07-13T02:16:32;5.78;;;1.70;;
16403;SDS011;8311;50.158;8.642;2023-07-13T02:19:25;3.92;;;1.58;;
16403;SDS011;8311;50.158;8.642;2023-07-13T02:22:19;4.45;;;1.80;;
16403;SDS011;8311;50.158;8.642;2023-07-13T02:25:13;2.85;;;1.50;;
16403;SDS011;8311;50.158;8.642;2023-07-13T02:28:07;5.05;;;2.05;;
16403;SDS011;8311;50.158;8.642;2023-07-13T02:31:06;2.47;;;1.35;;
16403;SDS011;8311;50.158;8.642;2023-07-13T02:34:01;6.43;;;1.38;;
16403;SDS011;8311;50.158;8.642;2023-07-13T02:36:54;3.22;;;1.40;;
16403;SDS011;8311;50.158;8.642;2023-07-13T02:39:47;2.67;;;1.38;;
16403;SDS011;8311;50.158;8.642;2023-07-13T02:42:41;2.85;;;1.23;;
16403;SDS011;8311;50.158;8.642;2023-07-13T02:45:34;3.63;;;1.65;;
16403;SDS011;8311;50.158;8.642;2023-07-13T02:48:28;4.68;;;1.60;;
16403;SDS011;8311;50.158;8.642;2023-07-13T02:51:21;2.47;;;1.30;;
16403;SDS011;8311;50.158;8.642;2023-07-13T02:54:14;2.28;;;1.30;;
16403;SDS011;8311;50.158;8.642;2023-07-13T02:57:08;2.40;;;1.35;;
16403;SDS011;8311;50.158;8.642;2023-07-13T03:00:02;2.78;;;1.50;;
16403;SDS011;8311;50.158;8.642;2023-07-13T03:02:58;1.73;;;1.20;;
16403;SDS011;8311;50.158;8.642;2023-07-13T03:05:59;4.22;;;1.65;;
16403;SDS011;8311;50.158;8.642;2023-07-13T03:08:54;4.40;;;1.52;;
16403;SDS011;8311;50.158;8.642;2023-07-13T03:11:48;3.38;;;1.60;;
16403;SDS011;8311;50.158;8.642;2023-07-13T03:14:40;3.42;;;1.50;;
16403;SDS011;8311;50.158;8.642;2023-07-13T03:17:34;3.60;;;1.67;;
16403;SDS011;8311;50.158;8.642;2023-07-13T03:20:28;2.78;;;1.50;;
16403;SDS011;8311;50.158;8.642;2023-07-13T03:23:22;3.75;;;1.58;;
16403;SDS011;8311;50.158;8.642;2023-07-13T03:26:16;2.17;;;1.35;;
16403;SDS011;8311;50.158;8.642;2023-07-13T03:29:11;4.10;;;1.63;;
16403;SDS011;8311;50.158;8.642;2023-07-13T03:32:04;3.90;;;1.70;;
16403;SDS011;8311;50.158;8.642;2023-07-13T03:34:58;4.82;;;1.38;;
16403;SDS011;8311;50.158;8.642;2023-07-13T03:37:51;3.33;;;1.33;;
16403;SDS011;8311;50.158;8.642;2023-07-13T03:40:45;3.05;;;1.33;;
16403;SDS011;8311;50.158;8.642;2023-07-13T03:43:39;2.92;;;1.20;;
16403;SDS011;8311;50.158;8.642;2023-07-13T03:46:31;3.75;;;1.50;;
16403;SDS011;8311;50.158;8.642;2023-07-13T03:49:26;5.57;;;1.80;;
16403;SDS011;8311;50.158;8.642;2023-07-13T03:52:19;3.45;;;1.70;;
16403;SDS011;8311;50.158;8.642;2023-07-13T03:55:12;4.35;;;1.45;;
16403;SDS011;8311;50.158;8.642;2023-07-13T03:58:27;4.65;;;1.58;;
16403;SDS011;8311;50.158;8.642;2023-07-13T04:01:24;3.58;;;1.50;;
16403;SDS011;8311;50.158;8.642;2023-07-13T04:04:18;2.75;;;1.40;;
16403;SDS011;8311;50.158;8.642;2023-07-13T04:07:12;2.85;;;1.30;;
16403;SDS011;8311;50.158;8.642;2023-07-13T04:10:05;2.85;;;1.13;;
16403;SDS011;8311;50.158;8.642;2023-07-13T04:12:59;6.32;;;1.40;;
16403;SDS011;8311;50.158;8.642;2023-07-13T04:15:53;2.20;;;1.23;;
16403;SDS011;8311;50.158;8.642;2023-07-13T04:18:47;2.78;;;1.13;;
16403;SDS011;8311;50.158;8.642;2023-07-13T04:21:41;3.38;;;1.40;;
16403;SDS011;8311;50.158;8.642;2023-07-13T04:24:34;4.40;;;1.65;;
16403;SDS011;8311;50.158;8.642;2023-07-13T04:27:27;2.20;;;1.10;;
16403;SDS011;8311;50.158;8.642;2023-07-13T04:30:21;6.13;;;1.50;;
16403;SDS011;8311;50.158;8.642;2023-07-13T04:33:15;3.85;;;1.35;;
16403;SDS011;8311;50.158;8.642;2023-07-13T04:36:09;2.22;;;1.02;;
16403;SDS011;8311;50.158;8.642;2023-07-13T04:39:03;2.70;;;1.30;;
16403;SDS011;8311;50.158;8.642;2023-07-13T04:41:56;3.33;;;1.30;;
16403;SDS011;8311;50.158;8.642;2023-07-13T04:44:49;3.63;;;1.45;;
16403;SDS011;8311;50.158;8.642;2023-07-13T04:47:43;3.45;;;1.30;;
16403;SDS011;8311;50.158;8.642;2023-07-13T04:50:38;3.10;;;1.08;;
16403;SDS011;8311;50.158;8.642;2023-07-13T04:53:32;2.40;;;1.30;;
16403;SDS011;8311;50.158;8.642;2023-07-13T04:56:26;3.22;;;1.40;;
16403;SDS011;8311;50.158;8.642;2023-07-13T04:59:19;3.33;;;1.45;;
16403;SDS011;8311;50.158;8.642;2023-07-13T05:02:12;5.07;;;1.50;;
16403;SDS011;8311;50.158;8.642;2023-07-13T05:05:05;2.97;;;1.30;;
16403;SDS011;8311;50.158;8.642;2023-07-13T05:08:02;2.67;;;1.30;;
16403;SDS011;8311;50.158;8.642;2023-07-13T05:10:59;4.45;;;1.65;;
16403;SDS011;8311;50.158;8.642;2023-07-13T05:13:53;5.28;;;1.40;;
16403;SDS011;8311;50.158;8.642;2023-07-13T05:16:46;4.07;;;1.20;;
16403;SDS011;8311;50.158;8.642;2023-07-13T05:19:39;4.30;;;1.58;;
16403;SDS011;8311;50.158;8.642;2023-07-13T05:22:32;5.13;;;1.73;;
16403;SDS011;8311;50.158;8.642;2023-07-13T05:25:28;4.25;;;1.33;;
16403;SDS011;8311;50.158;8.642;2023-07-13T05:28:21;4.18;;;1.58;;
16403;SDS011;8311;50.158;8.642;2023-07-13T05:31:15;5.03;;;1.60;;
16403;SDS011;8311;50.158;8.642;2023-07-13T05:34:08;4.60;;;1.15;;
16403;SDS011;8311;50.158;8.642;2023-07-13T05:37:01;3.83;;;1.10;;
16403;SDS011;8311;50.158;8.642;2023-07-13T05:39:55;4.20;;;1.35;;
16403;SDS011;8311;50.158;8.642;2023-07-13T05:42:49;4.35;;;1.40;;
16403;SDS011;8311;50.158;8.642;2023-07-13T05:45:43;3.17;;;1.25;;
16403;SDS011;8311;50.158;8.642;2023-07-13T05:48:39;6.30;;;1.70;;
16403;SDS011;8311;50.158;8.642;2023-07-13T05:51:32;5.25;;;1.70;;
16403;SDS011;8311;50.158;8.642;2023-07-13T05:54:25;6.22;;;1.88;;
16403;SDS011;8311;50.158;8.642;2023-07-13T05:57:19;8.52;;;1.95;;
16403;SDS011;8311;50.158;8.642;2023-07-13T06:00:14;6.40;;;1.42;;
16403;SDS011;8311;50.158;8.642;2023-07-13T06:03:08;6.07;;;1.50;;
16403;SDS011;8311;50.158;8.642;2023-07-13T06:06:01;4.13;;;1.33;;
16403;SDS011;8311;50.158;8.642;2023-07-13T06:08:54;4.22;;;1.08;;
16403;SDS011;8311;50.158;8.642;2023-07-13T06:11:47;2.10;;;1.13;;
16403;SDS011;8311;50.158;8.642;2023-07-13T06:14:40;5.72;;;1.33;;
16403;SDS011;8311;50.158;8.642;2023-07-13T06:17:34;2.90;;;1.30;;
16403;SDS011;8311;50.158;8.642;2023-07-13T06:20:27;4.22;;;1.05;;
16403;SDS011;8311;50.158;8.642;2023-07-13T06:23:22;3.60;;;1.40;;
16403;SDS011;8311;50.158;8.642;2023-07-13T06:26:16;3.65;;;1.23;;
16403;SDS011;8311;50.158;8.642;2023-07-13T06:29:10;3.13;;;1.30;;
16403;SDS011;8311;50.158;8.642;2023-07-13T06:32:05;3.40;;;1.00;;
16403;SDS011;8311;50.158;8.642;2023-07-13T06:35:00;2.47;;;1.08;;
16403;SDS011;8311;50.158;8.642;2023-07-13T06:37:54;1.48;;;0.98;;
16403;SDS011;8311;50.158;8.642;2023-07-13T06:40:47;3.97;;;1.02;;
16403;SDS011;8311;50.158;8.642;2023-07-13T06:43:41;4.65;;;1.20;;
16403;SDS011;8311;50.158;8.642;2023-07-13T06:46:34;3.78;;;1.25;;
16403;SDS011;8311;50.158;8.642;2023-07-13T06:49:28;2.25;;;1.08;;
16403;SDS011;8311;50.158;8.642;2023-07-13T06:52:22;1.95;;;0.93;;
16403;SDS011;8311;50.158;8.642;2023-07-13T06:55:16;2.17;;;0.80;;
16403;SDS011;8311;50.158;8.642;2023-07-13T06:58:09;3.47;;;1.10;;
16403;SDS011;8311;50.158;8.642;2023-07-13T07:01:02;3.20;;;1.10;;
16403;SDS011;8311;50.158;8.642;2023-07-13T07:03:58;2.38;;;1.10;;
16403;SDS011;8311;50.158;8.642;2023-07-13T07:06:51;3.88;;;0.90;;
16403;SDS011;8311;50.158;8.642;2023-07-13T07:09:47;2.30;;;1.10;;
16403;SDS011;8311;50.158;8.642;2023-07-13T07:12:41;3.30;;;1.00;;
16403;SDS011;8311;50.158;8.642;2023-07-13T07:15:34;5.50;;;1.20;;
16403;SDS011;8311;50.158;8.642;2023-07-13T07:18:28;3.60;;;1.23;;
16403;SDS011;8311;50.158;8.642;2023-07-13T07:21:21;3.60;;;1.50;;
16403;SDS011;8311;50.158;8.642;2023-07-13T07:24:15;4.53;;;1.20;;
16403;SDS011;8311;50.158;8.642;2023-07-13T07:27:09;3.10;;;1.30;;
16403;SDS011;8311;50.158;8.642;2023-07-13T07:30:06;3.95;;;1.25;;
16403;SDS011;8311;50.158;8.642;2023-07-13T07:33:03;2.75;;;0.98;;
16403;SDS011;8311;50.158;8.642;2023-07-13T07:35:57;2.88;;;1.00;;
16403;SDS011;8311;50.158;8.642;2023-07-13T07:38:53;6.25;;;1.50;;
16403;SDS011;8311;50.158;8.642;2023-07-13T07:41:46;3.78;;;1.30;;
16403;SDS011;8311;50.158;8.642;2023-07-13T07:44:44;2.80;;;1.05;;
16403;SDS011;8311;50.158;8.642;2023-07-13T07:47:37;2.35;;;1.05;;
16403;SDS011;8311;50.158;8.642;2023-07-13T07:50:31;3.30;;;1.00;;
16403;SDS011;8311;50.158;8.642;2023-07-13T07:53:25;2.58;;;1.10;;
16403;SDS011;8311;50.158;8.642;2023-07-13T07:56:19;1.55;;;1.10;;
16403;SDS011;8311;50.158;8.642;2023-07-13T07:59:15;3.50;;;1.13;;
16403;SDS011;8311;50.158;8.642;2023-07-13T08:02:12;3.05;;;0.93;;
16403;SDS011;8311;50.158;8.642;2023-07-13T08:05:26;5.57;;;1.15;;
16403;SDS011;8311;50.158;8.642;2023-07-13T08:08:22;1.90;;;0.88;;
16403;SDS011;8311;50.158;8.642;2023-07-13T08:11:16;3.55;;;0.93;;
16403;SDS011;8311;50.158;8.642;2023-07-13T08:14:13;3.10;;;1.15;;
16403;SDS011;8311;50.158;8.642;2023-07-13T08:17:07;2.63;;;0.93;;
16403;SDS011;8311;50.158;8.642;2023-07-13T08:20:02;2.85;;;1.10;;
16403;SDS011;8311;50.158;8.642;2023-07-13T08:22:56;1.88;;;0.93;;
16403;SDS011;8311;50.158;8.642;2023-07-13T08:25:50;1.55;;;0.98;;
16403;SDS011;8311;50.158;8.642;2023-07-13T08:28:44;6.88;;;1.63;;
16403;SDS011;8311;50.158;8.642;2023-07-13T08:31:37;3.80;;;1.13;;
16403;SDS011;8311;50.158;8.642;2023-07-13T08:34:31;3.30;;;1.02;;
16403;SDS011;8311;50.158;8.642;2023-07-13T08:37:26;3.50;;;1.30;;
16403;SDS011;8311;50.158;8.642;2023-07-13T08:40:19;2.72;;;0.80;;
16403;SDS011;8311;50.158;8.642;2023-07-13T08:43:18;2.33;;;0.95;;
16403;SDS011;8311;50.158;8.642;2023-07-13T08:46:23;2.53;;;1.15;;
16403;SDS011;8311;50.158;8.642;2023-07-13T08:49:21;3.50;;;0.90;;
16403;SDS011;8311;50.158;8.642;2023-07-13T08:52:17;5.38;;;1.73;;
16403;SDS011;8311;50.158;8.642;2023-07-13T08:55:24;3.63;;;1.02;;
16403;SDS011;8311;50.158;8.642;2023-07-13T08:58:23;1.70;;;0.75;;
16403;SDS011;8311;50.158;8.642;2023-07-13T09:01:22;2.65;;;1.20;;
16403;SDS011;8311;50.158;8.642;2023-07-13T09:04:20;4.90;;;1.30;;
16403;SDS011;8311;50.158;8.642;2023-07-13T09:07:21;2.30;;;1.20;;
16403;SDS011;8311;50.158;8.642;2023-07-13T09:10:28;2.72;;;0.90;;
16403;SDS011;8311;50.158;8.642;2023-07-13T09:13:24;2.78;;;1.10;;
16403;SDS011;8311;50.158;8.642;2023-07-13T09:16:24;2.65;;;1.33;;
16403;SDS011;8311;50.158;8.642;2023-07-13T09:19:20;3.90;;;1.23;;
16403;SDS011;8311;50.158;8.642;2023-07-13T09:22:19;6.85;;;1.40;;
16403;SDS011;8311;50.158;8.642;2023-07-13T09:25:21;3.67;;;1.15;;
16403;SDS011;8311;50.158;8.642;2023-07-13T09:28:18;2.90;;;0.95;;
16403;SDS011;8311;50.158;8.642;2023-07-13T09:31:16;1.80;;;1.10;;
16403;SDS011;8311;50.158;8.642;2023-07-13T09:34:13;1.63;;;1.02;;
16403;SDS011;8311;50.158;8.642;2023-07-13T09:37:06;2.35;;;1.05;;
16403;SDS011;8311;50.158;8.642;2023-07-13T09:39:59;1.27;;;0.70;;
16403;SDS011;8311;50.158;8.642;2023-07-13T09:42:59;2.75;;;1.08;;
16403;SDS011;8311;50.158;8.642;2023-07-13T09:45:53;2.63;;;0.88;;
16403;SDS011;8311;50.158;8.642;2023-07-13T09:48:46;2.72;;;1.00;;
16403;SDS011;8311;50.158;8.642;2023-07-13T09:51:41;3.45;;;1.08;;
16403;SDS011;8311;50.158;8.642;2023-07-13T09:54:36;1.77;;;1.02;;
16403;SDS011;8311;50.158;8.642;2023-07-13T09:57:30;3.17;;;0.98;;
16403;SDS011;8311;50.158;8.642;2023-07-13T10:00:43;3.20;;;0.88;;
16403;SDS011;8311;50.158;8.642;2023-07-13T10:03:51;1.98;;;0.90;;
16403;SDS011;8311;50.158;8.642;2023-07-13T10:06:46;4.05;;;1.05;;
16403;SDS011;8311;50.158;8.642;2023-07-13T10:09:43;1.80;;;0.98;;
16403;SDS011;8311;50.158;8.642;2023-07-13T10:12:37;3.28;;;1.42;;
16403;SDS011;8311;50.158;8.642;2023-07-13T10:15:31;1.83;;;0.98;;
16403;SDS011;8311;50.158;8.642;2023-07-13T10:18:27;2.40;;;0.90;;
16403;SDS011;8311;50.158;8.642;2023-07-13T10:21:26;2.88;;;1.02;;
16403;SDS011;8311;50.158;8.642;2023-07-13T10:24:27;2.10;;;0.80;;
16403;SDS011;8311;50.158;8.642;2023-07-13T10:27:26;2.95;;;1.10;;
16403;SDS011;8311;50.158;8.642;2023-07-13T10:30:27;3.05;;;1.00;;
16403;SDS011;8311;50.158;8.642;2023-07-13T10:33:26;1.25;;;0.82;;
16403;SDS011;8311;50.158;8.642;2023-07-13T10:36:23;2.97;;;0.80;;
16403;SDS011;8311;50.158;8.642;2023-07-13T10:39:24;1.67;;;1.00;;
16403;SDS011;8311;50.158;8.642;2023-07-13T10:42:30;2.05;;;0.80;;
16403;SDS011;8311;50.158;8.642;2023-07-13T10:45:33;2.55;;;1.17;;
16403;SDS011;8311;50.158;8.642;2023-07-13T10:48:30;1.17;;;0.73;;
16403;SDS011;8311;50.158;8.642;2023-07-13T10:51:24;3.08;;;0.88;;
16403;SDS011;8311;50.158;8.642;2023-07-13T10:54:19;1.58;;;0.93;;
16403;SDS011;8311;50.158;8.642;2023-07-13T10:57:15;1.73;;;0.85;;
16403;SDS011;8311;50.158;8.642;2023-07-13T11:00:15;0.65;;;0.60;;
16403;SDS011;8311;50.158;8.642;2023-07-13T11:03:10;1.67;;;1.00;;
16403;SDS011;8311;50.158;8.642;2023-07-13T11:06:10;2.65;;;0.82;;
16403;SDS011;8311;50.158;8.642;2023-07-13T11:09:17;1.80;;;0.80;;
16403;SDS011;8311;50.158;8.642;2023-07-13T11:15:43;2.13;;;0.80;;
16403;SDS011;8311;50.158;8.642;2023-07-13T11:18:40;2.80;;;0.98;;
16403;SDS011;8311;50.158;8.642;2023-07-13T11:21:41;2.00;;;0.80;;
16403;SDS011;8311;50.158;8.642;2023-07-13T11:24:59;2.50;;;0.98;;
16403;SDS011;8311;50.158;8.642;2023-07-13T11:28:05;2.10;;;0.75;;
16403;SDS011;8311;50.158;8.642;2023-07-13T11:31:13;1.00;;;0.77;;
16403;SDS011;8311;50.158;8.642;2023-07-13T11:34:08;1.50;;;0.88;;
16403;SDS011;8311;50.158;8.642;2023-07-13T11:37:12;1.02;;;0.80;;
16403;SDS011;8311;50.158;8.642;2023-07-13T11:40:11;1.80;;;0.90;;
16403;SDS011;8311;50.158;8.642;2023-07-13T11:43:06;5.20;;;1.02;;
16403;SDS011;8311;50.158;8.642;2023-07-13T11:46:13;2.83;;;0.93;;
16403;SDS011;8311;50.158;8.642;2023-07-13T11:49:07;0.98;;;0.80;;
16403;SDS011;8311;50.158;8.642;2023-07-13T11:52:05;2.60;;;0.82;;
16403;SDS011;8311;50.158;8.642;2023-07-13T11:55:13;1.20;;;0.60;;
16403;SDS011;8311;50.158;8.642;2023-07-13T11:58:08;1.95;;;1.02;;
16403;SDS011;8311;50.158;8.642;2023-07-13T12:01:03;1.85;;;1.02;;
16403;SDS011;8311;50.158;8.642;2023-07-13T12:03:57;2.72;;;1.00;;
16403;SDS011;8311;50.158;8.642;2023-07-13T12:06:54;2.15;;;0.98;;
16403;SDS011;8311;50.158;8.642;2023-07-13T12:09:51;1.23;;;0.80;;
16403;SDS011;8311;50.158;8.642;2023-07-13T12:12:46;0.95;;;0.70;;
16403;SDS011;8311;50.158;8.642;2023-07-13T12:15:41;0.90;;;0.80;;
16403;SDS011;8311;50.158;8.642;2023-07-13T12:18:38;0.60;;;0.60;;
16403;SDS011;8311;50.158;8.642;2023-07-13T12:21:33;0.65;;;0.52;;
16403;SDS011;8311;50.158;8.642;2023-07-13T12:24:39;2.08;;;0.77;;
16403;SDS011;8311;50.158;8.642;2023-07-13T12:27:34;0.85;;;0.70;;
16403;SDS011;8311;50.158;8.642;2023-07-13T12:30:30;1.02;;;0.60;;
16403;SDS011;8311;50.158;8.642;2023-07-13T12:33:28;1.48;;;0.80;;
16403;SDS011;8311;50.158;8.642;2023-07-13T12:36:23;1.52;;;0.75;;
16403;SDS011;8311;50.158;8.642;2023-07-13T12:39:20;1.17;;;0.80;;
16403;SDS011;8311;50.158;8.642;2023-07-13T12:42:19;1.27;;;0.70;;
16403;SDS011;8311;50.158;8.642;2023-07-13T12:45:19;0.57;;;0.57;;
16403;SDS011;8311;50.158;8.642;2023-07-13T12:48:15;1.00;;;0.70;;
16403;SDS011;8311;50.158;8.642;2023-07-13T12:51:21;0.60;;;0.50;;
16403;SDS011;8311;50.158;8.642;2023-07-13T12:54:17;1.38;;;0.70;;
16403;SDS011;8311;50.158;8.642;2023-07-13T12:57:13;1.65;;;0.80;;
16403;SDS011;8311;50.158;8.642;2023-07-13T13:00:19;1.10;;;0.73;;
16403;SDS011;8311;50.158;8.642;2023-07-13T13:03:20;1.00;;;0.60;;
16403;SDS011;8311;50.158;8.642;2023-07-13T13:06:20;1.35;;;0.77;;
16403;SDS011;8311;50.158;8.642;2023-07-13T13:09:15;1.13;;;0.88;;
16403;SDS011;8311;50.158;8.642;2023-07-13T13:12:11;1.55;;;0.73;;
16403;SDS011;8311;50.158;8.642;2023-07-13T13:15:06;0.90;;;0.65;;
16403;SDS011;8311;50.158;8.642;2023-07-13T13:18:02;1.58;;;0.70;;
16403;SDS011;8311;50.158;8.642;2023-07-13T13:20:55;1.08;;;0.70;;
16403;SDS011;8311;50.158;8.642;2023-07-13T13:23:48;0.93;;;0.68;;
16403;SDS011;8311;50.158;8.642;2023-07-13T13:26:42;1.15;;;0.70;;
16403;SDS011;8311;50.158;8.642;2023-07-13T13:29:37;1.58;;;0.80;;
16403;SDS011;8311;50.158;8.642;2023-07-13T13:32:32;1.75;;;0.90;;
16403;SDS011;8311;50.158;8.642;2023-07-13T13:35:26;1.85;;;0.70;;
16403;SDS011;8311;50.158;8.642;2023-07-13T13:38:24;1.60;;;0.73;;
16403;SDS011;8311;50.158;8.642;2023-07-13T13:41:18;0.60;;;0.60;;
16403;SDS011;8311;50.158;8.642;2023-07-13T13:44:16;2.08;;;0.88;;
16403;SDS011;8311;50.158;8.642;2023-07-13T13:47:17;1.35;;;0.73;;
16403;SDS011;8311;50.158;8.642;2023-07-13T13:50:22;0.77;;;0.70;;
16403;SDS011;8311;50.158;8.642;2023-07-13T13:53:17;4.35;;;1.70;;
16403;SDS011;8311;50.158;8.642;2023-07-13T13:56:10;6.25;;;1.83;;
16403;SDS011;8311;50.158;8.642;2023-07-13T13:59:04;3.05;;;1.30;;
16403;SDS011;8311;50.158;8.642;2023-07-13T14:01:58;3.78;;;1.05;;
16403;SDS011;8311;50.158;8.642;2023-07-13T14:04:54;3.85;;;1.27;;
16403;SDS011;8311;50.158;8.642;2023-07-13T14:07:49;4.03;;;1.40;;
16403;SDS011;8311;50.158;8.642;2023-07-13T14:10:46;3.53;;;1.50;;
16403;SDS011;8311;50.158;8.642;2023-07-13T14:13:43;3.78;;;1.20;;
16403;SDS011;8311;50.158;8.642;2023-07-13T14:16:40;3.85;;;1.45;;
16403;SDS011;8311;50.158;8.642;2023-07-13T14:19:34;5.35;;;1.58;;
16403;SDS011;8311;50.158;8.642;2023-07-13T14:22:27;5.18;;;1.60;;
16403;SDS011;8311;50.158;8.642;2023-07-13T14:25:20;5.10;;;1.67;;
16403;SDS011;8311;50.158;8.642;2023-07-13T14:28:19;4.18;;;1.27;;
16403;SDS011;8311;50.158;8.642;2023-07-13T14:31:14;9.95;;;1.80;;
16403;SDS011;8311;50.158;8.642;2023-07-13T14:34:09;6.68;;;1.90;;
16403;SDS011;8311;50.158;8.642;2023-07-13T14:37:03;8.90;;;2.63;;
16403;SDS011;8311;50.158;8.642;2023-07-13T14:40:01;11.82;;;2.70;;
16403;SDS011;8311;50.158;8.642;2023-07-13T14:42:54;9.02;;;2.53;;
16403;SDS011;8311;50.158;8.642;2023-07-13T14:45:49;8.43;;;2.47;;
16403;SDS011;8311;50.158;8.642;2023-07-13T14:48:43;5.00;;;2.30;;
16403;SDS011;8311;50.158;8.642;2023-07-13T14:51:36;5.25;;;1.73;;
16403;SDS011;8311;50.158;8.642;2023-07-13T14:54:29;6.75;;;2.13;;
16403;SDS011;8311;50.158;8.642;2023-07-13T14:57:22;4.68;;;1.65;;
16403;SDS011;8311;50.158;8.642;2023-07-13T15:00:17;6.47;;;2.10;;
16403;SDS011;8311;50.158;8.642;2023-07-13T15:03:16;5.63;;;1.50;;
16403;SDS011;8311;50.158;8.642;2023-07-13T15:06:14;4.45;;;1.40;;
16403;SDS011;8311;50.158;8.642;2023-07-13T15:09:08;4.05;;;1.30;;
16403;SDS011;8311;50.158;8.642;2023-07-13T15:12:04;4.47;;;1.67;;
16403;SDS011;8311;50.158;8.642;2023-07-13T15:14:58;4.43;;;1.50;;
16403;SDS011;8311;50.158;8.642;2023-07-13T15:17:51;3.17;;;1.30;;
16403;SDS011;8311;50.158;8.642;2023-07-13T15:20:46;4.35;;;1.65;;
16403;SDS011;8311;50.158;8.642;2023-07-13T15:23:40;2.13;;;1.20;;
16403;SDS011;8311;50.158;8.642;2023-07-13T15:26:35;4.40;;;1.40;;
16403;SDS011;8311;50.158;8.642;2023-07-13T15:29:29;4.32;;;1.17;;
16403;SDS011;8311;50.158;8.642;2023-07-13T15:32:22;2.63;;;1.08;;
16403;SDS011;8311;50.158;8.642;2023-07-13T15:35:18;2.58;;;1.27;;
16403;SDS011;8311;50.158;8.642;2023-07-13T15:38:16;3.13;;;1.30;;
16403;SDS011;8311;50.158;8.642;2023-07-13T15:41:14;3.60;;;1.05;;
16403;SDS011;8311;50.158;8.642;2023-07-13T15:44:19;2.63;;;1.20;;
16403;SDS011;8311;50.158;8.642;2023-07-13T15:47:15;4.60;;;1.30;;
16403;SDS011;8311;50.158;8.642;2023-07-13T15:50:11;2.60;;;1.17;;
16403;SDS011;8311;50.158;8.642;2023-07-13T15:53:08;2.58;;;1.27;;
16403;SDS011;8311;50.158;8.642;2023-07-13T15:56:06;3.55;;;1.20;;
16403;SDS011;8311;50.158;8.642;2023-07-13T15:59:10;3.53;;;1.45;;
16403;SDS011;8311;50.158;8.642;2023-07-13T16:02:11;2.35;;;1.17;;
16403;SDS011;8311;50.158;8.642;2023-07-13T16:05:06;2.42;;;1.20;;
16403;SDS011;8311;50.158;8.642;2023-07-13T16:07:59;2.53;;;1.15;;
16403;SDS011;8311;50.158;8.642;2023-07-13T16:10:55;2.33;;;1.33;;
16403;SDS011;8311;50.158;8.642;2023-07-13T16:13:53;3.45;;;1.40;;
16403;SDS011;8311;50.158;8.642;2023-07-13T16:16:49;2.42;;;1.25;;
16403;SDS011;8311;50.158;8.642;2023-07-13T16:19:50;2.65;;;1.42;;
16403;SDS011;8311;50.158;8.642;2023-07-13T16:22:44;3.17;;;1.30;;
16403;SDS011;8311;50.158;8.642;2023-07-13T16:25:40;2.55;;;1.10;;
16403;SDS011;8311;50.158;8.642;2023-07-13T16:28:35;2.47;;;1.10;;
16403;SDS011;8311;50.158;8.642;2023-07-13T16:31:33;2.63;;;1.30;;
16403;SDS011;8311;50.158;8.642;2023-07-13T16:34:26;2.58;;;1.30;;
16403;SDS011;8311;50.158;8.642;2023-07-13T16:37:21;2.85;;;1.20;;
16403;SDS011;8311;50.158;8.642;2023-07-13T16:40:20;1.55;;;1.02;;
16403;SDS011;8311;50.158;8.642;2023-07-13T16:43:15;3.95;;;1.25;;
16403;SDS011;8311;50.158;8.642;2023-07-13T16:46:14;2.80;;;1.10;;
16403;SDS011;8311;50.158;8.642;2023-07-13T16:49:21;2.67;;;1.20;;
16403;SDS011;8311;50.158;8.642;2023-07-13T16:52:16;3.78;;;1.00;;
16403;SDS011;8311;50.158;8.642;2023-07-13T16:55:12;2.80;;;1.10;;
16403;SDS011;8311;50.158;8.642;2023-07-13T16:58:08;3.08;;;1.20;;
16403;SDS011;8311;50.158;8.642;2023-07-13T17:01:02;3.67;;;1.63;;
16403;SDS011;8311;50.158;8.642;2023-07-13T17:03:56;3.47;;;1.33;;
16403;SDS011;8311;50.158;8.642;2023-07-13T17:06:57;2.80;;;1.25;;
16403;SDS011;8311;50.158;8.642;2023-07-13T17:09:50;2.20;;;1.30;;
16403;SDS011;8311;50.158;8.642;2023-07-13T17:12:45;2.92;;;1.42;;
16403;SDS011;8311;50.158;8.642;2023-07-13T17:15:39;2.08;;;1.17;;
16403;SDS011;8311;50.158;8.642;2023-07-13T17:18:32;1.92;;;1.17;;
16403;SDS011;8311;50.158;8.642;2023-07-13T17:21:27;4.90;;;1.42;;
16403;SDS011;8311;50.158;8.642;2023-07-13T17:24:23;2.35;;;1.17;;
16403;SDS011;8311;50.158;8.642;2023-07-13T17:27:17;2.17;;;1.20;;
16403;SDS011;8311;50.158;8.642;2023-07-13T17:30:13;2.85;;;1.30;;
16403;SDS011;8311;50.158;8.642;2023-07-13T17:33:25;3.40;;;1.30;;
16403;SDS011;8311;50.158;8.642;2023-07-13T17:36:21;2.95;;;1.15;;
16403;SDS011;8311;50.158;8.642;2023-07-13T17:39:15;2.20;;;1.17;;
16403;SDS011;8311;50.158;8.642;2023-07-13T17:42:11;2.67;;;1.33;;
16403;SDS011;8311;50.158;8.642;2023-07-13T17:45:05;2.17;;;1.25;;
16403;SDS011;8311;50.158;8.642;2023-07-13T17:48:01;2.45;;;1.05;;
16403;SDS011;8311;50.158;8.642;2023-07-13T17:50:58;2.05;;;1.25;;
16403;SDS011;8311;50.158;8.642;2023-07-13T17:53:53;2.08;;;1.30;;
16403;SDS011;8311;50.158;8.642;2023-07-13T17:56:47;1.75;;;1.00;;
16403;SDS011;8311;50.158;8.642;2023-07-13T17:59:45;2.42;;;1.20;;
16403;SDS011;8311;50.158;8.642;2023-07-13T18:02:37;2.15;;;1.20;;